createdAt,value
2022-08-12T00:00:03.148Z,46.40
2022-08-12T00:02:49.900Z,44.58
2022-08-12T00:05:35.842Z,44.63
2022-08-12T00:08:30.837Z,44.63
2022-08-12T00:11:22.682Z,44.73
2022-08-12T00:14:09.093Z,43.98
2022-08-12T00:16:56.306Z,43.41
2022-08-12T00:19:42.253Z,44.01
2022-08-12T00:22:28.872Z,43.80
2022-08-12T00:25:21.944Z,44.00
2022-08-12T00:28:28.282Z,44.06
2022-08-12T00:31:14.568Z,43.78
2022-08-12T00:34:00.487Z,44.95
2022-08-12T00:36:50.240Z,45.64
2022-08-12T00:39:37.100Z,46.04
2022-08-12T00:42:10.712Z,44.10
2022-08-12T00:44:45.480Z,44.40
2022-08-12T00:47:25.312Z,44.45
2022-08-12T00:49:55.413Z,44.58
2022-08-12T00:52:23.448Z,44.49
2022-08-12T00:54:58.857Z,44.86
2022-08-12T00:57:31.327Z,45.02
2022-08-12T01:00:10.614Z,45.00
2022-08-12T01:02:48.782Z,46.44
2022-08-12T01:05:41.673Z,46.14
2022-08-12T01:08:27.877Z,47.21
2022-08-12T01:11:14.678Z,46.30
2022-08-12T01:13:47.282Z,48.96
2022-08-12T01:16:18.174Z,48.79
2022-08-12T01:18:46.035Z,48.01
2022-08-12T01:21:26.600Z,48.62
2022-08-12T01:24:31.368Z,48.47
2022-08-12T01:27:01.264Z,49.13
2022-08-12T01:29:33.138Z,50.33
2022-08-12T01:32:05.499Z,48.75
2022-08-12T01:34:37.602Z,48.66
2022-08-12T01:37:09.794Z,48.80
2022-08-12T01:40:35.376Z,48.91
2022-08-12T01:42:46.125Z,48.95
2022-08-12T01:45:14.593Z,48.87
2022-08-12T01:48:05.414Z,48.86
2022-08-12T01:51:01.518Z,48.72
2022-08-12T01:53:58.657Z,48.88
2022-08-12T01:56:27.017Z,48.69
2022-08-12T01:59:16.962Z,48.77
2022-08-12T02:01:45.603Z,48.84
2022-08-12T02:05:05.063Z,48.82
2022-08-12T02:08:36.273Z,49.37
2022-08-12T02:11:22.862Z,49.68
2022-08-12T02:14:11.301Z,49.70
2022-08-12T02:16:56.770Z,49.79
2022-08-12T02:19:54.652Z,50.15
2022-08-12T02:22:31.453Z,50.29
2022-08-12T02:25:11.038Z,50.23
2022-08-12T02:27:47.617Z,50.64
2022-08-12T02:30:19.365Z,51.45
2022-08-12T02:32:50.944Z,52.18
2022-08-12T02:35:23.923Z,50.86
2022-08-12T02:37:56.288Z,51.45
2022-08-12T02:40:25.600Z,50.42
2022-08-12T02:42:55.740Z,50.87
2022-08-12T02:45:38.553Z,50.79
2022-08-12T02:48:10.517Z,52.57
2022-08-12T02:50:45.462Z,51.63
2022-08-12T02:53:13.459Z,51.01
2022-08-12T02:55:41.057Z,51.24
2022-08-12T02:58:12.423Z,52.21
2022-08-12T03:00:43.326Z,51.72
2022-08-12T03:03:13.866Z,52.41
2022-08-12T03:06:04.487Z,54.60
2022-08-12T03:08:35.869Z,55.16
2022-08-12T03:11:17.845Z,53.53
2022-08-12T03:13:53.654Z,55.40
2022-08-12T03:16:21.992Z,57.20
2022-08-12T03:18:51.397Z,55.67
2022-08-12T03:21:55.562Z,56.57
2022-08-12T03:24:09.209Z,57.90
2022-08-12T03:26:37.653Z,57.58
2022-08-12T03:29:06.954Z,57.89
2022-08-12T03:31:34.659Z,57.00
2022-08-12T03:34:12.622Z,57.75
2022-08-12T03:36:42.120Z,59.20
2022-08-12T03:39:37.027Z,59.37
2022-08-12T03:42:17.077Z,57.81
2022-08-12T03:45:20.435Z,58.58
2022-08-12T03:48:18.587Z,57.67
2022-08-12T03:51:06.181Z,60.35
2022-08-12T03:53:52.656Z,59.17
2022-08-12T03:56:38.841Z,61.97
2022-08-12T03:59:26.052Z,60.47
2022-08-12T04:01:57.576Z,62.11
2022-08-12T04:04:33.968Z,61.43
2022-08-12T04:07:03.256Z,61.00
2022-08-12T04:09:31.385Z,60.67
2022-08-12T04:12:17.237Z,60.97
2022-08-12T04:14:44.808Z,60.10
2022-08-12T04:17:13.171Z,61.40
2022-08-12T04:19:40.812Z,61.36
2022-08-12T04:22:09.480Z,59.39
2022-08-12T04:24:40.749Z,60.55
2022-08-12T04:27:12.598Z,60.32
2022-08-12T04:30:30.340Z,59.14
2022-08-12T04:32:28.537Z,60.64
2022-08-12T04:34:56.427Z,61.68
2022-08-12T04:37:23.967Z,61.87
2022-08-12T04:39:52.929Z,61.21
2022-08-12T04:42:21.094Z,61.26
2022-08-12T04:44:48.837Z,62.09
2022-08-12T04:47:17.201Z,62.09
2022-08-12T04:49:46.640Z,62.50
2022-08-12T04:52:14.123Z,62.32
2022-08-12T04:54:43.805Z,61.23
2022-08-12T04:57:11.390Z,62.08
2022-08-12T04:59:48.444Z,62.62
2022-08-12T05:02:21.635Z,62.29
2022-08-12T05:04:51.938Z,60.40
2022-08-12T05:07:20.539Z,58.19
2022-08-12T05:10:00.228Z,56.69
2022-08-12T05:12:38.091Z,55.42
2022-08-12T05:15:19.484Z,49.72
2022-08-12T05:17:55.955Z,48.76
2022-08-12T05:20:26.062Z,43.80
2022-08-12T05:23:23.872Z,40.07
2022-08-12T05:25:52.322Z,37.82
2022-08-12T05:28:19.693Z,38.37
2022-08-12T05:30:48.703Z,36.09
2022-08-12T05:33:16.035Z,33.92
2022-08-12T05:35:45.376Z,32.91
2022-08-12T05:38:33.187Z,33.00
2022-08-12T05:41:01.690Z,34.08
2022-08-12T05:43:29.692Z,35.21
2022-08-12T05:45:57.108Z,34.89
2022-08-12T05:48:24.592Z,34.50
2022-08-12T05:50:53.151Z,33.77
2022-08-12T05:53:20.508Z,33.23
2022-08-12T05:55:48.814Z,31.42
2022-08-12T05:58:16.191Z,32.68
2022-08-12T06:00:43.605Z,32.96
2022-08-12T06:03:12.016Z,34.71
2022-08-12T06:05:43.102Z,34.29
2022-08-12T06:08:22.312Z,33.35
2022-08-12T06:10:50.272Z,33.82
2022-08-12T06:13:28.409Z,33.55
2022-08-12T06:16:10.542Z,34.55
2022-08-12T06:18:39.995Z,33.77
2022-08-12T06:21:12.563Z,31.78
2022-08-12T06:23:42.692Z,30.47
2022-08-12T06:26:12.802Z,32.63
2022-08-12T06:28:43.777Z,32.89
2022-08-12T06:31:26.975Z,32.55
2022-08-12T06:34:52.921Z,33.39
2022-08-12T06:36:43.185Z,31.99
2022-08-12T06:39:15.223Z,33.89
2022-08-12T06:42:31.517Z,32.86
2022-08-12T06:44:50.413Z,31.02
2022-08-12T06:47:19.522Z,30.19
2022-08-12T06:49:48.481Z,30.63
2022-08-12T06:52:17.252Z,31.91
2022-08-12T06:54:45.719Z,31.86
2022-08-12T06:58:06.220Z,32.40
2022-08-12T07:00:00.510Z,30.95
2022-08-12T07:02:27.826Z,31.51
2022-08-12T07:04:55.230Z,33.03
2022-08-12T07:07:22.686Z,31.40
2022-08-12T07:10:06.559Z,31.47
2022-08-12T07:12:35.992Z,30.96
2022-08-12T07:15:03.714Z,30.41
2022-08-12T07:17:37.272Z,29.50
2022-08-12T07:20:09.851Z,29.70
2022-08-12T07:22:37.708Z,29.83
2022-08-12T07:25:24.051Z,29.65
2022-08-12T07:27:54.820Z,28.70
2022-08-12T07:30:23.261Z,28.44
2022-08-12T07:32:51.634Z,28.70
2022-08-12T07:35:20.276Z,28.54
2022-08-12T07:37:50.183Z,27.81
2022-08-12T07:40:18.732Z,28.17
2022-08-12T07:42:46.320Z,27.13
2022-08-12T07:45:14.585Z,27.94
2022-08-12T07:47:43.494Z,27.92
2022-08-12T07:50:13.484Z,27.91
2022-08-12T07:52:43.397Z,27.74
2022-08-12T07:55:11.728Z,26.42
2022-08-12T07:57:59.188Z,27.38
2022-08-12T08:00:28.059Z,24.72
2022-08-12T08:02:55.674Z,25.76
2022-08-12T08:05:25.801Z,25.47
2022-08-12T08:07:55.587Z,26.50
2022-08-12T08:10:23.191Z,25.61
2022-08-12T08:12:53.528Z,26.00
2022-08-12T08:15:38.662Z,25.78
2022-08-12T08:18:25.808Z,24.89
2022-08-12T08:20:53.521Z,24.53
2022-08-12T08:23:21.075Z,25.04
2022-08-12T08:25:50.086Z,25.72
2022-08-12T08:28:17.648Z,24.68
2022-08-12T08:30:47.923Z,25.06
2022-08-12T08:34:01.589Z,24.96
2022-08-12T08:36:06.852Z,26.59
2022-08-12T08:38:58.298Z,26.33
2022-08-12T08:42:16.789Z,24.25
2022-08-12T08:44:36.410Z,23.84
2022-08-12T08:47:05.651Z,22.96
2022-08-12T08:49:35.166Z,23.07
2022-08-12T08:52:08.378Z,23.92
2022-08-12T08:54:37.635Z,24.33
2022-08-12T08:57:08.063Z,23.56
2022-08-12T08:59:35.886Z,24.16
2022-08-12T09:02:03.565Z,23.74
2022-08-12T09:05:13.859Z,24.52
2022-08-12T09:10:09.325Z,24.07
2022-08-12T09:13:16.199Z,24.24
2022-08-12T09:15:56.079Z,23.80
2022-08-12T09:21:13.987Z,23.77
2022-08-12T09:23:59.062Z,23.12
2022-08-12T09:26:30.593Z,25.19
2022-08-12T09:29:00.402Z,24.19
2022-08-12T09:32:07.182Z,24.13
2022-08-12T09:34:26.467Z,23.25
2022-08-12T09:37:00.202Z,24.51
2022-08-12T09:40:04.395Z,21.08
2022-08-12T09:42:54.355Z,22.07
2022-08-12T09:46:11.466Z,22.85
2022-08-12T09:48:21.988Z,22.50
2022-08-12T09:50:52.113Z,22.67
2022-08-12T09:53:29.527Z,22.58
2022-08-12T09:56:57.301Z,22.42
2022-08-12T09:59:00.551Z,21.85
2022-08-12T10:01:35.244Z,23.00
2022-08-12T10:04:19.872Z,21.92
2022-08-12T10:06:53.923Z,22.54
2022-08-12T10:09:28.774Z,21.94
2022-08-12T10:12:32.918Z,21.36
2022-08-12T10:15:01.876Z,20.29
2022-08-12T10:17:29.790Z,21.09
2022-08-12T10:19:59.887Z,20.16
2022-08-12T10:22:36.597Z,20.13
2022-08-12T10:26:35.905Z,19.96
2022-08-12T10:28:33.740Z,21.28
2022-08-12T10:31:01.678Z,19.23
2022-08-12T10:33:54.816Z,18.78
2022-08-12T10:36:40.047Z,21.31
2022-08-12T10:40:00.114Z,21.67
2022-08-12T10:42:15.779Z,19.76
2022-08-12T10:44:48.446Z,19.91
2022-08-12T10:47:26.062Z,21.60
2022-08-12T10:50:28.518Z,22.99
2022-08-12T10:52:57.291Z,21.26
2022-08-12T10:55:26.064Z,21.77
2022-08-12T10:58:14.588Z,20.73
2022-08-12T11:00:55.543Z,21.91
2022-08-12T11:04:25.447Z,21.49
2022-08-12T11:07:07.086Z,20.07
2022-08-12T11:09:07.297Z,18.88
2022-08-12T11:12:35.332Z,19.84
2022-08-12T11:14:50.034Z,17.32
2022-08-12T11:17:43.877Z,20.24
2022-08-12T11:20:03.564Z,20.69
2022-08-12T11:22:32.332Z,19.64
2022-08-12T11:24:59.955Z,19.60
2022-08-12T11:27:29.528Z,19.19
2022-08-12T11:30:02.263Z,20.45
2022-08-12T11:32:38.618Z,19.67
2022-08-12T11:35:07.374Z,19.04
2022-08-12T11:37:57.887Z,19.85
2022-08-12T11:40:24.750Z,21.95
2022-08-12T11:42:53.141Z,21.26
2022-08-12T11:45:20.719Z,20.74
2022-08-12T11:47:49.282Z,20.22
2022-08-12T11:50:32.079Z,19.99
2022-08-12T11:52:59.964Z,18.12
2022-08-12T11:55:29.442Z,17.56
2022-08-12T11:58:51.087Z,18.06
2022-08-12T12:03:43.807Z,21.39
2022-08-12T12:06:16.937Z,20.82
2022-08-12T12:08:50.544Z,22.19
2022-08-12T12:11:18.884Z,22.97
2022-08-12T12:14:08.582Z,23.04
2022-08-12T12:16:38.326Z,22.13
2022-08-12T12:19:10.032Z,23.63
2022-08-12T12:21:47.311Z,23.97
2022-08-12T12:24:22.141Z,24.88
2022-08-12T12:27:00.931Z,25.15
2022-08-12T12:30:19.642Z,25.04
2022-08-12T12:32:29.074Z,24.36
2022-08-12T12:35:14.131Z,24.22
2022-08-12T12:38:03.615Z,25.04
2022-08-12T12:40:34.372Z,24.19
2022-08-12T12:43:05.188Z,25.34
2022-08-12T12:45:33.966Z,24.53
2022-08-12T12:48:06.065Z,23.12
2022-08-12T12:50:51.262Z,21.45
2022-08-12T12:54:06.358Z,21.67
2022-08-12T12:56:15.467Z,21.15
2022-08-12T12:58:43.900Z,19.32
2022-08-12T13:01:26.599Z,19.63
2022-08-12T13:04:01.862Z,21.16
2022-08-12T13:06:31.728Z,22.33
2022-08-12T13:09:02.680Z,22.96
2022-08-12T13:11:41.874Z,23.71
2022-08-12T13:14:28.764Z,23.92
2022-08-12T13:17:02.397Z,23.32
2022-08-12T13:19:38.769Z,24.06
2022-08-12T13:22:19.942Z,23.45
2022-08-12T13:24:55.736Z,23.49
2022-08-12T13:27:35.616Z,23.66
2022-08-12T13:30:13.037Z,23.91
2022-08-12T13:32:42.572Z,23.56
2022-08-12T13:35:20.161Z,23.50
2022-08-12T13:37:59.253Z,23.15
2022-08-12T13:40:34.617Z,23.61
2022-08-12T13:43:06.857Z,24.78
2022-08-12T13:45:35.679Z,24.03
2022-08-12T13:48:08.230Z,24.23
2022-08-12T13:50:39.045Z,24.15
2022-08-12T13:53:24.371Z,24.49
2022-08-12T13:55:59.585Z,24.72
2022-08-12T13:58:30.543Z,24.41
2022-08-12T14:00:59.510Z,24.43
2022-08-12T14:03:28.657Z,24.13
2022-08-12T14:06:15.797Z,23.98
2022-08-12T14:08:43.830Z,24.38
2022-08-12T14:11:13.234Z,25.24
2022-08-12T14:14:03.404Z,25.48
2022-08-12T14:16:46.815Z,24.89
2022-08-12T14:19:22.223Z,24.66
2022-08-12T14:21:59.847Z,24.83
2022-08-12T14:24:40.248Z,25.38
2022-08-12T14:27:10.392Z,25.42
2022-08-12T14:30:04.098Z,24.86
2022-08-12T14:32:34.608Z,24.88
2022-08-12T14:35:03.909Z,25.06
2022-08-12T14:37:56.508Z,24.67
2022-08-12T14:40:23.410Z,25.09
2022-08-12T14:42:57.105Z,24.57
2022-08-12T14:45:44.643Z,24.50
2022-08-12T14:48:13.595Z,24.83
2022-08-12T14:51:09.448Z,24.09
2022-08-12T14:59:57.588Z,23.86
2022-08-12T15:02:20.655Z,24.34
2022-08-12T15:04:54.695Z,23.44
2022-08-12T15:07:33.427Z,23.21
2022-08-12T15:10:12.192Z,23.51
2022-08-12T15:12:40.498Z,23.76
2022-08-12T15:15:10.268Z,24.48
2022-08-12T15:17:38.833Z,24.72
2022-08-12T15:20:32.010Z,25.29
2022-08-12T15:22:56.506Z,25.22
2022-08-12T15:25:28.681Z,25.12
2022-08-12T15:28:03.937Z,25.48
2022-08-12T15:30:34.017Z,25.60
2022-08-12T15:33:14.839Z,25.01
2022-08-12T15:35:52.166Z,25.43
2022-08-12T15:38:25.192Z,25.11
2022-08-12T15:40:54.276Z,25.52
2022-08-12T15:43:51.779Z,25.14
2022-08-12T15:46:15.261Z,24.70
2022-08-12T15:48:46.478Z,24.93
2022-08-12T15:51:57.450Z,25.20
2022-08-12T15:54:30.882Z,26.02
2022-08-12T15:57:05.647Z,26.59
2022-08-12T16:00:00.099Z,26.90
2022-08-12T16:02:21.332Z,26.88
2022-08-12T16:04:51.462Z,27.27
2022-08-12T16:07:25.903Z,27.81
2022-08-12T16:10:05.518Z,27.27
2022-08-12T16:12:42.296Z,27.37
2022-08-12T16:15:13.387Z,27.33
2022-08-12T16:18:15.320Z,26.96
2022-08-12T16:20:33.141Z,26.37
2022-08-12T16:23:36.597Z,25.77
2022-08-12T16:26:06.410Z,24.56
2022-08-12T16:28:42.006Z,25.33
2022-08-12T16:31:14.506Z,24.32
2022-08-12T16:33:59.515Z,24.90
2022-08-12T16:36:29.245Z,25.08
2022-08-12T16:38:56.847Z,25.17
2022-08-12T16:41:25.630Z,25.09
2022-08-12T16:43:55.753Z,25.44
2022-08-12T16:46:32.530Z,25.27
2022-08-12T16:49:08.805Z,25.96
2022-08-12T16:51:46.084Z,25.41
2022-08-12T16:54:16.441Z,25.32
2022-08-12T16:56:55.489Z,25.54
2022-08-12T16:59:53.634Z,25.98
2022-08-12T17:02:31.902Z,25.66
2022-08-12T17:05:03.184Z,25.96
2022-08-12T17:07:36.842Z,25.84
2022-08-12T17:10:09.549Z,25.41
2022-08-12T17:12:39.950Z,25.43
2022-08-12T17:15:51.233Z,25.49
2022-08-12T17:18:43.943Z,25.63
2022-08-12T17:20:47.491Z,25.30
2022-08-12T17:23:16.845Z,25.84
2022-08-12T17:25:46.461Z,25.54
2022-08-12T17:28:16.872Z,26.59
2022-08-12T17:30:45.190Z,25.83
2022-08-12T17:33:24.698Z,26.30
2022-08-12T17:35:53.289Z,25.59
2022-08-12T17:38:21.061Z,25.53
2022-08-12T17:40:48.993Z,25.52
2022-08-12T17:43:55.882Z,26.13
2022-08-12T17:46:12.468Z,26.33
2022-08-12T17:48:54.926Z,26.63
2022-08-12T17:51:24.387Z,26.62
2022-08-12T17:54:10.667Z,26.95
2022-08-12T17:56:43.280Z,26.84
2022-08-12T17:59:12.565Z,27.16
2022-08-12T18:01:44.091Z,27.45
2022-08-12T18:04:21.230Z,27.51
2022-08-12T18:06:52.931Z,27.08
2022-08-12T18:09:24.739Z,27.65
2022-08-12T18:12:24.575Z,28.03
2022-08-12T18:15:00.363Z,27.74
2022-08-12T18:17:29.091Z,28.41
2022-08-12T18:20:06.429Z,28.50
2022-08-12T18:22:36.329Z,29.35
2022-08-12T18:26:12.636Z,28.63
2022-08-12T18:28:15.063Z,29.18
2022-08-12T18:30:53.084Z,28.98
2022-08-12T18:33:26.734Z,29.30
2022-08-12T18:35:56.666Z,29.29
2022-08-12T18:38:26.909Z,29.63
2022-08-12T18:41:21.461Z,29.89
2022-08-12T18:44:02.964Z,29.75
2022-08-12T18:46:35.967Z,29.94
2022-08-12T18:49:18.350Z,30.23
2022-08-12T18:51:55.455Z,30.17
2022-08-12T18:54:35.474Z,30.51
2022-08-12T18:57:15.440Z,30.76
2022-08-12T19:00:00.076Z,30.84
2022-08-12T19:02:32.774Z,31.18
2022-08-12T19:05:08.209Z,31.34
2022-08-12T19:07:49.587Z,31.59
2022-08-12T19:10:25.675Z,32.20
2022-08-12T19:13:15.637Z,32.02
2022-08-12T19:15:48.767Z,32.48
2022-08-12T19:18:16.901Z,32.79
2022-08-12T19:20:48.011Z,33.16
2022-08-12T19:23:21.485Z,33.20
2022-08-12T19:26:00.982Z,33.63
2022-08-12T19:28:35.361Z,33.82
2022-08-12T19:31:56.092Z,34.11
2022-08-12T19:34:56.401Z,34.48
2022-08-12T19:37:27.480Z,34.42
2022-08-12T19:40:07.885Z,34.67
2022-08-12T19:42:42.721Z,34.81
2022-08-12T19:45:14.046Z,35.31
2022-08-12T19:47:44.729Z,35.52
2022-08-12T19:50:19.742Z,35.85
2022-08-12T19:52:51.127Z,36.08
2022-08-12T19:55:21.789Z,36.13
2022-08-12T19:58:02.604Z,36.36
2022-08-12T20:00:34.606Z,36.54
2022-08-12T20:03:04.231Z,37.05
2022-08-12T20:06:06.941Z,36.88
2022-08-12T20:08:34.148Z,37.17
2022-08-12T20:12:14.635Z,37.53
2022-08-12T20:14:00.226Z,37.17
2022-08-12T20:16:52.982Z,37.48
2022-08-12T20:19:18.089Z,37.71
2022-08-12T20:21:45.583Z,37.71
2022-08-12T20:24:14.215Z,38.59
2022-08-12T20:26:43.206Z,38.60
2022-08-12T20:29:12.006Z,39.10
2022-08-12T20:31:40.664Z,39.30
2022-08-12T20:34:09.378Z,38.97
2022-08-12T20:36:44.830Z,38.95
2022-08-12T20:39:35.832Z,39.13
2022-08-12T20:42:07.578Z,39.06
2022-08-12T20:44:40.164Z,39.82
2022-08-12T20:47:18.074Z,39.74
2022-08-12T20:49:54.870Z,40.20
2022-08-12T20:52:29.817Z,40.40
2022-08-12T20:54:58.153Z,40.62
2022-08-12T20:57:38.495Z,40.91
2022-08-12T21:00:22.697Z,41.10
2022-08-12T21:03:15.919Z,40.96
2022-08-12T21:06:13.687Z,41.80
2022-08-12T21:08:42.808Z,41.04
2022-08-12T21:11:10.386Z,41.88
2022-08-12T21:13:41.898Z,41.65
2022-08-12T21:16:10.390Z,42.01
2022-08-12T21:18:38.370Z,42.21
2022-08-12T21:21:06.672Z,43.85
2022-08-12T21:23:36.865Z,42.55
2022-08-12T21:26:11.270Z,42.90
2022-08-12T21:28:39.749Z,42.95
2022-08-12T21:32:35.031Z,44.92
2022-08-12T21:34:07.809Z,44.57
2022-08-12T21:36:39.906Z,44.18
2022-08-12T21:39:27.910Z,44.08
2022-08-12T21:42:06.939Z,44.68
2022-08-12T21:45:46.702Z,44.93
2022-08-12T21:47:25.779Z,45.49
2022-08-12T21:50:04.293Z,45.74
2022-08-12T21:52:42.197Z,45.82
2022-08-12T21:55:19.241Z,45.97
2022-08-12T21:57:54.632Z,46.74
2022-08-12T22:00:33.507Z,47.45
2022-08-12T22:04:03.591Z,48.20
2022-08-12T22:06:43.329Z,46.27
2022-08-12T22:09:15.623Z,48.00
2022-08-12T22:11:49.306Z,48.23
2022-08-12T22:14:24.930Z,46.95
2022-08-12T22:16:55.000Z,47.23
2022-08-12T22:19:24.030Z,47.94
2022-08-12T22:21:54.120Z,47.62
2022-08-12T22:24:27.248Z,47.36
2022-08-12T22:27:14.323Z,48.50
2022-08-12T22:30:16.883Z,48.01
2022-08-12T22:32:51.661Z,48.57
2022-08-12T22:35:56.000Z,48.80
2022-08-12T22:38:20.947Z,48.74
2022-08-12T22:40:50.794Z,48.11
2022-08-12T22:44:00.217Z,48.35
2022-08-12T22:46:53.077Z,48.45
2022-08-12T22:49:36.293Z,50.30
2022-08-12T22:52:12.569Z,49.47
2022-08-12T22:55:00.203Z,49.47
2022-08-12T22:57:53.521Z,50.21
2022-08-12T23:00:23.909Z,49.12
2022-08-12T23:02:58.336Z,49.33
2022-08-12T23:05:57.236Z,49.77
2022-08-12T23:08:18.880Z,50.38
2022-08-12T23:10:47.669Z,51.38
2022-08-12T23:13:38.720Z,51.31
2022-08-12T23:16:28.003Z,51.42
2022-08-12T23:19:01.524Z,51.44
2022-08-12T23:22:05.825Z,51.86
2022-08-12T23:24:35.337Z,50.98
2022-08-12T23:27:21.546Z,50.69
2022-08-12T23:30:05.924Z,51.49
2022-08-12T23:32:37.249Z,53.53
2022-08-12T23:35:06.880Z,54.06
2022-08-12T23:37:46.978Z,55.19
2022-08-12T23:40:22.540Z,53.29
2022-08-12T23:42:54.867Z,55.64
2022-08-12T23:45:30.852Z,56.97
2022-08-12T23:48:00.720Z,59.75
2022-08-12T23:50:33.536Z,60.89
2022-08-12T23:53:03.475Z,61.06
2022-08-12T23:55:40.936Z,61.14
2022-08-12T23:58:22.423Z,59.68
